Latest Weather Observations for Ouse

IDT60801

Issued at 4:32 pm EDT Thursday 8 December 2016 (issued every 30 minutes, with the page automatically refreshed every 10 minutes)

About weather observations | Map of weather stations | Latest weather observations for TAS | Other Formats
Station Details ID: 095048 Name: OUSE FIRE STATION Lat: -42.48 Lon: 146.71 Height: 90.0 m
Data from the previous 72 hours. | See also: Recent months at Ouse
Date/Time
EDT
Temp
°C
App
Temp
°C
Dew
Point
°C
Rel
Hum
%
Delta-T
°C
Wind Press
QNH
hPa
Press
MSL
hPa
Rain since
9am
mm
Dir  Spd
km/h
Gust
km/h
Spd
kts
Gust
kts
08/04:30pm 19.2 12.1 7.9 48 5.9 NNW 35 59 19 32 982.3 982.1 1.4
08/04:00pm 19.9 13.5 7.0 43 6.7 NNW 30 50 16 27 982.6 982.4 1.4
08/03:30pm 21.5 12.8 5.8 36 7.9 NW 41 65 22 35 982.3 982.1 1.4
08/03:00pm 22.1 14.4 5.5 34 8.4 NW 35 59 19 32 982.8 982.6 1.4
08/02:30pm 22.8 15.7 6.6 35 8.3 N 33 56 18 30 982.9 982.7 1.4
08/02:00pm 23.3 17.3 10.0 43 7.4 NNW 32 54 17 29 983.1 982.9 1.4
08/01:58pm 23.1 16.9 8.0 38 8.0 NNW 30 54 16 29 983.1 982.9 1.4
08/01:52pm 23.1 19.0 10.2 44 7.1 NNW 22 44 12 24 983.2 983.0 1.4
08/01:30pm 19.1 18.9 13.7 71 3.1 E 7 13 4 7 983.9 983.7 1.4
08/01:00pm 18.6 17.8 13.9 74 2.7 SSE 11 15 6 8 984.9 984.7 1.4
08/12:30pm 18.0 17.2 13.9 77 2.3 SSE 11 15 6 8 986.0 985.8 1.4
08/12:00pm 17.3 16.0 13.8 80 2.0 S 13 17 7 9 986.9 986.7 1.4
08/11:30am 14.1 13.8 13.3 95 0.4 S 7 9 4 5 988.0 987.8 1.4
08/11:00am 13.0 11.7 12.4 96 0.3 SE 11 15 6 8 988.9 988.8 1.4
08/10:30am 12.6 10.4 12.1 97 0.3 SSW 15 24 8 13 989.9 989.8 1.4
08/10:00am 12.4 11.6 11.1 92 0.7 SSW 6 9 3 5 990.8 990.7 0.2
08/09:30am 12.2 11.5 11.3 94 0.5 SW 6 13 3 7 991.9 991.8 0.0
08/09:00am 11.6 9.6 11.4 99 0.1 SSE 13 19 7 10 992.5 992.4 0.8
08/08:30am 11.3 8.9 11.3 100 0.0 S 15 20 8 11 993.1 993.0 0.8
08/08:28am 11.3 8.9 11.3 100 0.0 S 15 20 8 11 993.3 993.1 0.8
08/08:00am 10.5 9.6 10.5 100 0.0 N 6 11 3 6 995.3 995.1 0.8
08/07:30am 10.3 9.3 10.3 100 0.0 SW 6 9 3 5 996.3 996.1 0.8
08/07:00am 10.0 8.7 10.0 100 0.0 S 7 9 4 5 997.1 996.9 0.8
08/06:30am 9.9 8.6 9.9 100 0.0 S 7 13 4 7 997.5 997.3 0.8
08/06:00am 9.5 8.1 9.5 100 0.0 SSE 7 11 4 6 998.4 998.3 0.8
08/05:30am 9.3 8.8 9.3 100 0.0 NE 2 9 1 5 999.2 999.1 0.8
08/05:00am 9.2 7.7 9.2 100 0.0 NW 7 13 4 7 999.9 999.8 0.0
08/04:30am 8.7 8.0 8.7 100 0.0 N 2 7 1 4 1000.3 1000.2 0.0
08/04:00am 8.1 7.3 8.1 100 0.0 NNW 2 7 1 4 1000.7 1000.6 0.0
08/03:30am 7.1 5.3 7.0 99 0.0 NNW 6 9 3 5 1001.3 1001.2 0.0
08/03:00am 7.4 5.6 7.3 99 0.0 NNE 6 9 3 5 1001.9 1001.8 0.0
08/02:30am 7.5 6.8 6.9 96 0.3 CALM 0 0 0 0 1002.6 1002.5 0.0
08/02:00am 8.2 7.6 7.4 95 0.4 CALM 0 0 0 0 1003.1 1003.0 0.0
08/01:30am 8.8 7.6 8.2 96 0.3 ENE 4 7 2 4 1003.6 1003.5 0.0
08/01:00am 9.4 9.0 8.2 92 0.6 CALM 0 0 0 0 1004.5 1004.4 0.0
08/12:30am 9.5 8.7 8.3 92 0.6 NNW 2 7 1 4 1005.2 1005.0 0.0
08/12:00am 10.5 9.1 8.8 89 0.8 NW 6 9 3 5 1005.5 1005.3 0.0
 
Date/Time
EDT
Temp
°C
App
Temp
°C
Dew
Point
°C
Rel
Hum
%
Delta-T
°C
Wind Press
QNH
hPa
Press
MSL
hPa
Rain since
9am
mm
Dir  Spd
km/h
Gust
km/h
Spd
kts
Gust
kts
07/11:30pm 11.3 11.1 9.0 86 1.2 CALM 0 0 0 0 1006.3 1006.1 0.0
07/11:00pm 12.5 11.0 9.1 80 1.7 N 7 11 4 6 1006.8 1006.6 0.0
07/10:30pm 14.4 12.7 9.8 74 2.4 N 9 13 5 7 1006.9 1006.7 0.0
07/10:00pm 14.7 12.7 10.1 74 2.4 NNE 11 15 6 8 1006.9 1006.7 0.0
07/09:30pm 15.0 14.3 10.0 72 2.6 NNW 4 11 2 6 1007.1 1006.9 0.0
07/09:00pm 16.2 14.4 9.6 65 3.5 WNW 9 15 5 8 1007.3 1007.1 0.0
07/08:30pm 17.4 15.3 9.6 60 4.1 W 11 15 6 8 1007.4 1007.2 0.0
07/08:00pm 18.3 15.9 9.9 58 4.5 WNW 13 19 7 10 1007.8 1007.7 0.0
07/07:30pm 19.0 16.8 9.5 54 5.0 WSW 11 17 6 9 1007.7 1007.6 0.0
07/07:00pm 19.6 16.6 9.2 51 5.5 W 15 24 8 13 1007.8 1007.7 0.0
07/06:30pm 20.5 17.0 8.8 47 6.2 WNW 17 24 9 13 1007.8 1007.7 0.0
07/06:00pm 21.1 17.3 9.0 46 6.5 W 19 28 10 15 1007.8 1007.7 0.0
07/05:30pm 21.0 16.9 8.6 45 6.5 WNW 20 33 11 18 1007.8 1007.7 0.0
07/05:00pm 22.3 19.6 9.1 43 7.1 WNW 13 20 7 11 1008.0 1007.9 0.0
07/04:30pm 20.7 16.7 9.0 47 6.2 WNW 20 28 11 15 1008.2 1008.1 0.0
07/04:00pm 21.6 17.9 7.8 41 7.2 WNW 17 35 9 19 1008.1 1008.0 0.0
07/03:30pm 21.3 16.8 6.8 39 7.4 WNW 20 32 11 17 1008.5 1008.4 0.0
07/03:00pm 22.1 18.1 8.2 41 7.3 WNW 19 28 10 15 1008.6 1008.5 0.0
07/02:30pm 21.4 18.3 10.3 49 6.1 WNW 17 30 9 16 1008.9 1008.8 0.0
07/02:00pm 20.8 17.0 9.1 47 6.2 WNW 19 32 10 17 1009.2 1009.1 0.0
07/01:30pm 20.6 16.8 9.8 50 5.8 WNW 20 30 11 16 1009.7 1009.6 0.0
07/01:00pm 20.5 15.7 10.3 52 5.5 WNW 26 35 14 19 1009.9 1009.8 0.0
07/12:30pm 19.3 15.5 8.9 51 5.5 W 19 32 10 17 1009.9 1009.8 0.0
07/12:00pm 20.3 16.7 9.8 51 5.7 W 19 28 10 15 1010.0 1009.9 0.0
07/11:30am 19.2 15.2 9.1 52 5.3 W 20 32 11 17 1010.4 1010.3 0.0
07/11:00am 18.8 14.9 9.3 54 5.0 WNW 20 30 11 16 1010.4 1010.3 0.0
07/10:30am 16.8 14.2 9.2 61 4.0 NNW 13 20 7 11 1010.6 1010.5 0.0
07/10:00am 16.9 13.9 9.1 60 4.1 N 15 24 8 13 1010.7 1010.6 0.0
07/09:30am 15.5 13.4 8.3 62 3.7 N 9 13 5 7 1010.8 1010.7 0.0
07/09:00am 14.8 11.6 8.3 65 3.3 N 15 24 8 13 1011.1 1011.0 0.0
07/08:30am 14.7 12.2 8.0 64 3.4 N 11 15 6 8 1011.0 1010.9 0.0
07/08:00am 13.8 10.9 8.2 69 2.8 N 13 20 7 11 1011.0 1010.9 0.0
07/07:30am 12.7 10.5 8.0 73 2.3 N 9 15 5 8 1010.9 1010.8 0.0
07/07:00am 11.1 8.4 7.4 78 1.8 N 11 15 6 8 1010.7 1010.6 0.0
07/06:30am 10.0 7.6 7.1 82 1.4 N 9 13 5 7 1010.8 1010.7 0.0
07/06:00am 9.1 6.2 6.4 83 1.3 N 11 13 6 7 1010.6 1010.5 0.0
07/05:30am 8.9 5.4 5.6 80 1.5 NNW 13 17 7 9 1010.5 1010.4 0.0
07/05:00am 9.6 6.2 5.8 77 1.8 NNW 13 15 7 8 1010.2 1010.1 0.0
07/04:30am 10.0 6.6 6.0 76 1.9 NNW 13 17 7 9 1010.2 1010.1 0.0
07/04:00am 8.3 5.3 5.9 85 1.1 NNW 11 19 6 10 1010.1 1010.0 0.0
07/03:30am 7.4 6.3 5.0 85 1.1 CALM 0 0 0 0 1010.4 1010.3 0.0
07/03:00am 8.1 5.4 5.7 85 1.1 NNE 9 11 5 6 1010.4 1010.3 0.0
07/02:30am 8.4 6.5 6.5 88 0.9 WNW 6 11 3 6 1010.4 1010.3 0.0
07/02:00am 9.1 6.9 6.2 82 1.3 NNW 7 11 4 6 1010.8 1010.7 0.0
07/01:30am 9.5 6.9 6.2 80 1.5 NNW 9 15 5 8 1010.9 1010.8 0.0
07/01:00am 9.8 7.6 6.2 78 1.7 N 7 9 4 5 1011.1 1011.0 0.0
07/12:30am 10.7 8.6 6.5 75 2.0 N 7 11 4 6 1011.0 1010.9 0.0
07/12:00am 11.3 8.4 6.4 72 2.3 N 11 13 6 7 1011.0 1010.9 0.0
 
Date/Time
EDT
Temp
°C
App
Temp
°C
Dew
Point
°C
Rel
Hum
%
Delta-T
°C
Wind Press
QNH
hPa
Press
MSL
hPa
Rain since
9am
mm
Dir  Spd
km/h
Gust
km/h
Spd
kts
Gust
kts
06/11:30pm 11.5 8.7 6.8 73 2.2 NW 11 19 6 10 1011.2 1011.1 0.0
06/11:00pm 11.2 8.7 6.5 73 2.2 NNW 9 15 5 8 1011.4 1011.3 0.0
06/10:30pm 11.1 9.0 6.5 73 2.2 NNW 7 13 4 7 1011.4 1011.3 0.0
06/10:00pm 12.1 9.5 5.9 66 2.9 NW 9 17 5 9 1011.4 1011.3 0.0
06/09:30pm 13.2 9.7 5.6 60 3.6 NW 13 17 7 9 1011.0 1010.9 0.0
06/09:00pm 13.9 10.7 5.3 56 4.1 WNW 11 17 6 9 1010.8 1010.7 0.0
06/08:30pm 13.7 11.0 5.8 59 3.8 NW 9 15 5 8 1010.5 1010.4 0.0
06/08:00pm 14.3 11.2 5.4 55 4.2 W 11 17 6 9 1010.1 1010.0 0.0
06/07:30pm 14.9 10.6 5.1 52 4.6 W 17 28 9 15 1009.8 1009.7 0.0
06/07:00pm 16.7 12.6 6.2 50 5.2 WSW 17 24 9 13 1009.7 1009.6 0.0
06/06:30pm 17.0 12.5 5.9 48 5.4 W 19 30 10 16 1009.5 1009.4 0.0
06/06:00pm 17.3 12.1 5.6 46 5.7 W 22 32 12 17 1009.3 1009.2 0.0
06/05:30pm 17.8 13.0 5.7 45 5.9 WSW 20 32 11 17 1009.3 1009.2 0.0
06/05:00pm 18.1 12.2 5.7 44 6.1 W 26 37 14 20 1009.3 1009.2 0.0
06/04:30pm 17.0 11.5 5.9 48 5.4 WSW 24 41 13 22 1009.5 1009.4 0.0
06/04:00pm 17.0 11.7 5.0 45 5.8 W 22 35 12 19 1009.4 1009.3 0.0
06/03:30pm 17.3 10.5 5.3 45 5.8 W 30 43 16 23 1009.4 1009.3 0.0
06/03:00pm 18.1 13.4 5.3 43 6.2 WSW 19 32 10 17 1009.3 1009.2 0.0
06/02:30pm 17.8 13.2 6.3 47 5.7 SW 20 30 11 16 1009.2 1009.1 0.0
06/02:00pm 18.2 13.3 5.1 42 6.4 WSW 20 30 11 16 1009.4 1009.3 0.0
06/01:30pm 17.1 12.3 4.4 43 6.0 W 19 30 10 16 1009.8 1009.7 0.0
06/01:00pm 16.4 11.2 5.4 48 5.3 WNW 22 32 12 17 1010.1 1010.0 0.0
06/12:30pm 15.9 11.4 4.3 46 5.4 WNW 17 28 9 15 1010.1 1010.0 0.0
06/12:00pm 16.1 11.7 4.8 47 5.4 W 17 32 9 17 1010.2 1010.1 0.0
06/11:30am 16.0 11.0 4.4 46 5.4 WSW 20 30 11 16 1010.4 1010.3 0.0
06/11:00am 15.2 10.3 5.1 51 4.8 W 20 32 11 17 1010.5 1010.4 0.0
06/10:30am 14.8 11.9 6.4 57 4.1 SW 11 24 6 13 1010.6 1010.5 0.0
06/10:00am 14.5 12.3 6.3 58 4.0 SSE 7 11 4 6 1010.5 1010.4 0.0
06/09:30am 13.8 11.8 7.1 64 3.3 SW 7 11 4 6 1010.8 1010.7 0.0
06/09:00am 12.9 11.2 6.0 63 3.3 SW 4 7 2 4 1011.0 1010.9 0.0
06/08:30am 11.9 11.1 6.4 69 2.6 CALM 0 0 0 0 1011.4 1011.3 0.0
06/08:00am 10.7 8.8 6.5 75 2.0 SSE 6 9 3 5 1011.5 1011.4 0.0
06/07:30am 10.6 9.1 6.7 77 1.8 NNE 4 7 2 4 1011.5 1011.4 0.0
06/07:00am 9.7 8.9 6.6 81 1.5 CALM 0 0 0 0 1011.6 1011.5 0.0
06/06:30am 9.1 8.4 7.1 87 0.9 CALM 0 0 0 0 1011.8 1011.7 0.0
06/06:00am 8.6 6.2 7.2 91 0.7 NNE 9 13 5 7 1011.4 1011.3 0.0
06/05:30am 8.4 6.5 6.7 89 0.8 E 6 9 3 5 1011.1 1011.0 0.0
06/05:00am 8.2 6.3 6.8 91 0.7 NW 6 7 3 4 1011.1 1011.0 0.0
06/04:30am 8.2 7.4 6.5 89 0.8 CALM 0 0 0 0 1010.6 1010.5 0.0
06/04:00am 8.3 6.1 6.4 88 0.9 NW 7 9 4 5 1010.5 1010.4 0.0
06/03:30am 8.2 7.4 6.5 89 0.8 CALM 0 0 0 0 1010.5 1010.4 0.0
06/03:00am 8.0 7.2 6.3 89 0.8 CALM 0 0 0 0 1011.2 1011.1 0.0
06/02:30am 7.9 7.1 6.5 91 0.6 CALM 0 0 0 0 1011.3 1011.2 0.0
06/02:00am 7.5 5.3 6.0 90 0.7 NW 7 9 4 5 1011.3 1011.2 0.0
06/01:30am 6.4 5.2 4.7 89 0.7 CALM 0 0 0 0 1011.6 1011.5 0.0
06/01:00am 7.2 6.1 5.0 86 1.0 CALM 0 0 0 0 1011.5 1011.4 0.0
06/12:30am 7.9 5.5 5.4 84 1.1 ESE 7 13 4 7 1011.8 1011.7 0.0
06/12:00am 8.9 5.4 5.5 79 1.5 NW 13 19 7 10 1012.2 1012.1 0.0
 
Date/Time
EDT
Temp
°C
App
Temp
°C
Dew
Point
°C
Rel
Hum
%
Delta-T
°C
Wind Press
QNH
hPa
Press
MSL
hPa
Rain since
9am
mm
Dir  Spd
km/h
Gust
km/h
Spd
kts
Gust
kts
05/11:30pm 8.7 5.2 5.6 81 1.4 NNW 13 17 7 9 1012.4 1012.3 0.0
05/11:00pm 8.9 6.1 5.3 78 1.6 N 9 13 5 7 1012.5 1012.4 0.0
05/10:30pm 10.8 8.5 4.9 67 2.7 N 6 11 3 6 1012.2 1012.1 0.0
05/10:00pm 12.2 9.6 4.2 58 3.6 N 7 15 4 8 1012.0 1011.9 0.0
05/09:30pm 12.0 8.3 4.5 60 3.4 NE 13 20 7 11 1012.1 1012.0 0.0
05/09:00pm 12.8 10.3 4.5 57 3.8 NW 7 13 4 7 1011.7 1011.6 0.0
05/08:30pm 13.6 9.5 4.5 54 4.2 W 15 24 8 13 1011.5 1011.4 0.0
05/08:00pm 14.6 9.6 4.6 51 4.7 W 20 30 11 16 1011.0 1010.9 0.0
05/07:30pm 15.3 10.4 5.2 51 4.8 W 20 30 11 16 1010.4 1010.3 0.0
05/07:00pm 16.1 10.8 5.1 48 5.3 W 22 32 12 17 1010.1 1010.0 0.0
05/06:30pm 16.6 11.4 5.3 47 5.4 NW 22 35 12 19 1009.7 1009.6 0.0
05/06:00pm 17.1 12.3 5.4 46 5.7 NW 20 30 11 16 1009.1 1009.0 0.0
05/05:30pm 17.0 11.4 5.6 47 5.5 NW 24 35 13 19 1008.8 1008.7 0.0
05/05:00pm 17.7 12.6 5.9 46 5.8 WNW 22 33 12 18 1008.7 1008.6 0.0

Other Formats:

Comma delimited format used in spreadsheet applications
http://www.bom.gov.au/fwo/IDT60801/IDT60801.94957.axf

JavaScript Object Notation format (JSON) in row-major order
http://www.bom.gov.au/fwo/IDT60801/IDT60801.94957.json